createdAt,value
2017-11-28T00:00:25.956Z,1.90
2017-11-28T00:02:53.470Z,1.80
2017-11-28T00:05:20.965Z,1.80
2017-11-28T00:07:49.235Z,1.70
2017-11-28T00:10:17.505Z,1.70
2017-11-28T00:12:45.889Z,1.70
2017-11-28T00:15:14.157Z,1.60
2017-11-28T00:17:41.656Z,1.60
2017-11-28T00:20:09.288Z,1.60
2017-11-28T00:22:37.564Z,1.60
2017-11-28T00:25:05.841Z,1.60
2017-11-28T00:27:34.105Z,1.50
2017-11-28T00:30:01.596Z,1.50
2017-11-28T00:32:29.094Z,1.50
2017-11-28T00:34:56.605Z,1.50
2017-11-28T00:37:24.098Z,1.50
2017-11-28T00:39:51.597Z,1.50
2017-11-28T00:42:19.107Z,1.50
2017-11-28T00:44:46.596Z,1.60
2017-11-28T00:47:14.129Z,1.60
2017-11-28T00:49:41.621Z,1.60
2017-11-28T00:52:09.134Z,1.60
2017-11-28T00:54:36.648Z,1.60
2017-11-28T00:57:04.921Z,1.60
2017-11-28T00:59:32.411Z,1.50
2017-11-28T01:02:00.053Z,1.50
2017-11-28T01:04:28.320Z,1.40
2017-11-28T01:06:56.585Z,1.40
2017-11-28T01:09:24.085Z,1.30
2017-11-28T01:11:51.585Z,1.40
2017-11-28T01:14:19.076Z,1.40
2017-11-28T01:16:47.345Z,1.40
2017-11-28T01:19:15.626Z,1.40
2017-11-28T01:21:43.885Z,1.50
2017-11-28T01:24:11.397Z,1.50
2017-11-28T01:26:38.896Z,1.40
2017-11-28T01:29:06.390Z,1.40
2017-11-28T01:31:34.649Z,1.40
2017-11-28T01:34:02.937Z,1.30
2017-11-28T01:36:31.193Z,1.30
2017-11-28T01:38:58.694Z,1.30
2017-11-28T01:41:26.194Z,1.20
2017-11-28T01:43:53.710Z,1.10
2017-11-28T01:46:21.216Z,1.10
2017-11-28T01:48:48.739Z,1.10
2017-11-28T01:51:16.249Z,1.00
2017-11-28T01:53:44.513Z,1.10
2017-11-28T01:56:13.505Z,1.00
2017-11-28T01:58:41.009Z,1.00
2017-11-28T02:01:08.517Z,0.90
2017-11-28T02:03:36.046Z,0.90
2017-11-28T02:06:03.553Z,0.90
2017-11-28T02:08:31.061Z,0.80
2017-11-28T02:10:58.558Z,0.70
2017-11-28T02:13:26.825Z,0.90
2017-11-28T02:15:54.320Z,0.90
2017-11-28T02:18:22.580Z,0.90
2017-11-28T02:20:50.845Z,1.00
2017-11-28T02:23:18.365Z,1.00
2017-11-28T02:25:45.860Z,1.00
2017-11-28T02:28:13.357Z,1.00
2017-11-28T02:30:40.847Z,1.00
2017-11-28T02:33:08.359Z,1.10
2017-11-28T02:35:36.646Z,1.10
2017-11-28T02:38:04.145Z,1.10
2017-11-28T02:40:44.659Z,1.10
2017-11-28T02:43:12.919Z,1.20
2017-11-28T02:45:41.186Z,1.20
2017-11-28T02:48:08.806Z,1.20
2017-11-28T02:50:36.321Z,1.30
2017-11-28T02:53:04.581Z,1.30
2017-11-28T02:55:33.740Z,1.30
2017-11-28T02:58:03.969Z,1.30
2017-11-28T03:00:31.477Z,1.40
2017-11-28T03:02:59.765Z,1.40
2017-11-28T03:05:28.036Z,1.40
2017-11-28T03:07:56.316Z,1.30
2017-11-28T03:10:38.162Z,1.20
2017-11-28T03:13:06.565Z,1.20
2017-11-28T03:15:38.064Z,1.10
2017-11-28T03:18:06.320Z,1.10
2017-11-28T03:20:37.372Z,1.10
2017-11-28T03:36:28.316Z,1.00
2017-11-28T03:38:55.834Z,1.00
2017-11-28T03:41:23.331Z,1.00
2017-11-28T03:43:50.828Z,1.00
2017-11-28T03:46:20.652Z,1.00
2017-11-28T03:48:48.908Z,1.00
2017-11-28T03:51:17.179Z,1.10
2017-11-28T03:53:45.529Z,1.10
2017-11-28T03:56:13.022Z,1.10
2017-11-28T03:58:41.845Z,1.20
2017-11-28T04:01:09.354Z,1.20
2017-11-28T04:03:36.846Z,1.30
2017-11-28T04:06:04.385Z,1.30
2017-11-28T04:08:32.646Z,1.40
2017-11-28T04:11:00.945Z,1.40
2017-11-28T04:13:29.213Z,1.40
2017-11-28T04:15:57.532Z,1.40
2017-11-28T04:18:25.029Z,1.40
2017-11-28T04:20:52.536Z,1.40
2017-11-28T04:23:20.041Z,1.40
2017-11-28T04:25:47.832Z,1.40
2017-11-28T04:28:16.105Z,1.50
2017-11-28T04:30:44.365Z,1.40
2017-11-28T04:33:13.368Z,1.40
2017-11-28T04:35:40.877Z,1.40
2017-11-28T04:38:08.370Z,1.40
2017-11-28T04:40:37.380Z,1.40
2017-11-28T04:43:05.877Z,1.40
2017-11-28T04:45:34.151Z,1.40
2017-11-28T04:48:02.424Z,1.50
2017-11-28T04:50:30.681Z,1.60
2017-11-28T04:52:58.197Z,1.50
2017-11-28T04:55:25.695Z,1.70
2017-11-28T04:57:53.198Z,1.80
2017-11-28T05:00:20.694Z,2.00
2017-11-28T05:02:48.184Z,2.20
2017-11-28T05:05:16.452Z,2.30
2017-11-28T05:07:44.124Z,2.30
2017-11-28T05:10:12.384Z,2.70
2017-11-28T05:12:39.872Z,2.70
2017-11-28T05:15:08.162Z,3.00
2017-11-28T05:17:35.656Z,3.00
2017-11-28T05:20:03.150Z,3.20
2017-11-28T05:22:31.412Z,3.40
2017-11-28T05:24:59.096Z,3.40
2017-11-28T05:27:27.361Z,3.50
2017-11-28T05:29:55.640Z,3.70
2017-11-28T05:32:23.900Z,3.80
2017-11-28T05:34:51.393Z,3.80
2017-11-28T05:37:18.913Z,3.80
2017-11-28T05:39:47.176Z,3.90
2017-11-28T05:42:14.681Z,3.80
2017-11-28T05:44:42.940Z,4.00
2017-11-28T05:47:11.221Z,3.90
2017-11-28T05:49:39.500Z,3.90
2017-11-28T05:52:07.756Z,3.90
2017-11-28T05:54:35.262Z,3.90
2017-11-28T05:57:02.772Z,3.90
2017-11-28T05:59:30.453Z,3.90
2017-11-28T06:01:58.710Z,3.90
2017-11-28T06:04:26.989Z,3.90
2017-11-28T06:06:54.509Z,3.90
2017-11-28T06:09:22.005Z,3.90
2017-11-28T06:11:49.500Z,3.90
2017-11-28T06:14:16.997Z,3.90
2017-11-28T06:16:44.490Z,4.00
2017-11-28T06:19:11.988Z,3.90
2017-11-28T06:21:39.485Z,4.00
2017-11-28T06:24:07.102Z,4.10
2017-11-28T06:26:34.593Z,4.10
2017-11-28T06:29:02.082Z,4.20
2017-11-28T06:31:30.360Z,4.20
2017-11-28T06:33:58.624Z,4.20
2017-11-28T06:36:26.924Z,4.20
2017-11-28T06:38:55.180Z,4.30
2017-11-28T06:41:22.686Z,4.30
2017-11-28T06:43:50.181Z,4.40
2017-11-28T06:46:17.672Z,4.40
2017-11-28T06:48:45.952Z,4.50
2017-11-28T06:51:14.217Z,4.50
2017-11-28T06:53:42.478Z,4.50
2017-11-28T06:56:09.973Z,4.50
2017-11-28T06:58:37.623Z,4.60
2017-11-28T07:01:05.885Z,4.60
2017-11-28T07:03:33.386Z,4.60
2017-11-28T07:06:00.894Z,4.60
2017-11-28T07:08:28.388Z,4.70
2017-11-28T07:10:55.891Z,4.90
2017-11-28T07:13:23.389Z,5.00
2017-11-28T07:15:51.665Z,5.10
2017-11-28T07:18:19.940Z,5.20
2017-11-28T07:20:48.213Z,5.20
2017-11-28T07:23:16.600Z,5.20
2017-11-28T07:25:44.881Z,5.30
2017-11-28T07:28:12.382Z,5.30
2017-11-28T07:30:39.897Z,5.30
2017-11-28T07:33:08.166Z,5.40
2017-11-28T07:35:36.416Z,5.40
2017-11-28T07:38:05.437Z,5.30
2017-11-28T07:40:33.709Z,5.40
2017-11-28T07:43:01.980Z,5.50
2017-11-28T07:45:30.241Z,5.60
2017-11-28T07:47:57.751Z,5.60
2017-11-28T07:50:25.383Z,5.70
2017-11-28T07:52:53.652Z,5.70
2017-11-28T07:55:21.929Z,5.80
2017-11-28T07:57:50.189Z,5.80
2017-11-28T08:00:19.193Z,5.80
2017-11-28T08:02:47.590Z,5.80
2017-11-28T08:05:15.133Z,5.80
2017-11-28T08:07:43.459Z,5.90
2017-11-28T08:10:11.041Z,5.90
2017-11-28T08:12:38.549Z,6.00
2017-11-28T08:15:06.819Z,6.10
2017-11-28T08:17:35.077Z,6.30
2017-11-28T08:20:02.577Z,6.20
2017-11-28T08:22:30.096Z,6.40
2017-11-28T08:24:57.585Z,6.50
2017-11-28T08:27:25.097Z,6.60
2017-11-28T08:29:52.609Z,6.80
2017-11-28T08:32:20.127Z,6.90
2017-11-28T08:34:47.639Z,7.00
2017-11-28T08:37:15.148Z,7.10
2017-11-28T08:39:42.646Z,7.10
2017-11-28T08:42:10.144Z,7.20
2017-11-28T08:44:37.645Z,7.30
2017-11-28T08:47:05.146Z,7.30
2017-11-28T08:49:32.648Z,7.40
2017-11-28T08:52:00.903Z,7.50
2017-11-28T08:54:28.398Z,7.50
2017-11-28T08:56:55.913Z,7.50
2017-11-28T08:59:23.413Z,7.50
2017-11-28T09:01:50.913Z,7.50
2017-11-28T09:04:18.404Z,7.40
2017-11-28T09:06:45.904Z,7.30
2017-11-28T09:09:13.419Z,7.40
2017-11-28T09:11:40.912Z,7.40
2017-11-28T09:14:08.420Z,7.40
2017-11-28T09:16:35.921Z,7.40
2017-11-28T09:19:03.423Z,7.40
2017-11-28T09:21:30.940Z,7.40
2017-11-28T09:23:58.447Z,7.50
2017-11-28T09:26:25.940Z,7.40
2017-11-28T09:28:54.202Z,7.50
2017-11-28T09:31:21.702Z,7.50
2017-11-28T09:33:49.233Z,7.60
2017-11-28T09:36:17.512Z,7.70
2017-11-28T09:38:45.870Z,7.80
2017-11-28T09:41:13.374Z,7.70
2017-11-28T09:43:40.886Z,7.80
2017-11-28T09:46:08.397Z,7.80
2017-11-28T09:48:35.901Z,7.90
2017-11-28T09:51:03.396Z,7.90
2017-11-28T09:53:30.897Z,8.00
2017-11-28T09:55:58.389Z,8.10
2017-11-28T09:58:26.661Z,8.40
2017-11-28T10:00:54.161Z,8.40
2017-11-28T10:03:21.661Z,8.50
2017-11-28T10:05:49.152Z,8.60
2017-11-28T10:08:17.620Z,8.70
2017-11-28T10:10:46.004Z,8.80
2017-11-28T10:13:14.277Z,8.80
2017-11-28T10:15:42.564Z,8.90
2017-11-28T10:18:10.825Z,8.90
2017-11-28T10:20:39.088Z,9.00
2017-11-28T10:23:06.581Z,8.90
2017-11-28T10:25:34.075Z,9.00
2017-11-28T10:28:01.575Z,9.00
2017-11-28T10:30:29.857Z,9.20
2017-11-28T10:32:58.142Z,9.20
2017-11-28T10:35:26.411Z,9.30
2017-11-28T10:37:54.788Z,9.40
2017-11-28T10:40:23.053Z,9.50
2017-11-28T10:42:50.573Z,9.50
2017-11-28T10:45:18.063Z,9.60
2017-11-28T10:47:45.593Z,9.60
2017-11-28T10:50:13.095Z,9.70
2017-11-28T10:52:41.357Z,9.90
2017-11-28T10:55:08.975Z,9.80
2017-11-28T10:57:36.464Z,9.90
2017-11-28T11:00:04.159Z,10.00
2017-11-28T11:02:32.524Z,10.20
2017-11-28T11:05:00.785Z,10.30
2017-11-28T11:07:28.277Z,10.30
2017-11-28T11:09:55.804Z,10.40
2017-11-28T11:12:23.329Z,10.50
2017-11-28T11:14:50.837Z,10.70
2017-11-28T11:17:19.113Z,11.00
2017-11-28T11:19:47.402Z,11.20
2017-11-28T11:22:15.676Z,11.40
2017-11-28T11:24:43.952Z,11.60
2017-11-28T11:27:12.241Z,11.80
2017-11-28T11:29:39.761Z,11.80
2017-11-28T11:32:07.269Z,12.00
2017-11-28T11:34:34.785Z,12.20
2017-11-28T11:37:03.061Z,12.50
2017-11-28T11:39:30.572Z,12.40
2017-11-28T11:41:58.076Z,12.60
2017-11-28T11:44:25.765Z,12.70
2017-11-28T11:46:54.461Z,12.90
2017-11-28T11:49:21.962Z,12.90
2017-11-28T11:51:49.499Z,13.00
2017-11-28T11:54:17.023Z,13.00
2017-11-28T11:56:44.565Z,13.00
2017-11-28T11:59:12.080Z,12.90
2017-11-28T12:01:39.584Z,12.90
2017-11-28T12:04:07.097Z,12.70
2017-11-28T12:06:34.619Z,12.40
2017-11-28T12:09:02.889Z,12.00
2017-11-28T12:11:31.160Z,12.00
2017-11-28T12:13:59.439Z,11.90
2017-11-28T12:16:27.715Z,11.90
2017-11-28T12:18:56.105Z,11.80
2017-11-28T12:21:24.375Z,11.70
2017-11-28T12:23:52.637Z,11.60
2017-11-28T12:26:20.160Z,11.60
2017-11-28T12:28:47.778Z,11.40
2017-11-28T12:31:16.058Z,11.20
2017-11-28T12:33:44.321Z,11.10
2017-11-28T12:36:12.584Z,11.00
2017-11-28T12:38:40.105Z,10.90
2017-11-28T12:41:07.609Z,10.90
2017-11-28T12:43:35.108Z,10.90
2017-11-28T12:46:02.625Z,11.00
2017-11-28T12:48:30.127Z,11.10
2017-11-28T12:50:58.973Z,11.10
2017-11-28T12:53:26.488Z,11.20
2017-11-28T12:55:53.989Z,11.20
2017-11-28T12:58:21.565Z,11.30
2017-11-28T13:00:49.079Z,11.40
2017-11-28T13:03:16.809Z,11.40
2017-11-28T13:05:44.307Z,11.50
2017-11-28T13:08:11.817Z,11.40
2017-11-28T13:10:39.326Z,11.30
2017-11-28T13:13:06.944Z,11.30
2017-11-28T13:15:34.445Z,11.20
2017-11-28T13:18:01.945Z,11.20
2017-11-28T13:20:29.445Z,11.30
2017-11-28T13:22:56.957Z,11.30
2017-11-28T13:25:24.474Z,11.20
2017-11-28T13:27:52.901Z,11.10
2017-11-28T13:30:20.408Z,11.10
2017-11-28T13:32:47.909Z,11.00
2017-11-28T13:35:16.188Z,10.90
2017-11-28T13:37:44.458Z,10.80
2017-11-28T13:40:12.725Z,10.60
2017-11-28T13:42:40.232Z,10.60
2017-11-28T13:45:13.973Z,10.40
2017-11-28T13:47:41.743Z,10.20
2017-11-28T13:50:09.254Z,10.10
2017-11-28T13:52:36.984Z,10.00
2017-11-28T13:55:05.248Z,9.80
2017-11-28T13:57:32.757Z,9.80
2017-11-28T14:00:00.381Z,9.70
2017-11-28T14:02:28.636Z,9.50
2017-11-28T14:04:56.129Z,9.50
2017-11-28T14:07:23.637Z,9.50
2017-11-28T14:09:51.129Z,9.40
2017-11-28T14:12:19.397Z,9.30
2017-11-28T14:14:46.917Z,9.30
2017-11-28T14:17:14.408Z,9.30
2017-11-28T14:19:53.649Z,9.20
2017-11-28T14:35:52.174Z,8.80
2017-11-28T14:38:19.663Z,8.80
2017-11-28T14:41:02.051Z,8.70
2017-11-28T14:43:30.560Z,8.70
2017-11-28T14:46:07.996Z,8.70
2017-11-28T14:48:35.509Z,8.60
2017-11-28T14:51:08.794Z,8.60
2017-11-28T14:53:41.924Z,8.60
2017-11-28T14:56:09.989Z,8.50
2017-11-28T14:58:48.177Z,8.50
2017-11-28T15:01:21.505Z,8.50
2017-11-28T15:03:50.905Z,8.40
2017-11-28T15:06:39.225Z,8.40
2017-11-28T15:09:13.408Z,8.30
2017-11-28T15:11:46.529Z,8.30
2017-11-28T15:14:19.640Z,8.30
2017-11-28T15:17:07.765Z,8.20
2017-11-28T15:19:39.159Z,8.20
2017-11-28T15:22:09.461Z,8.10
2017-11-28T15:24:40.429Z,8.20
2017-11-28T15:27:07.960Z,8.10
2017-11-28T15:29:38.369Z,8.10
2017-11-28T15:32:06.633Z,8.00
2017-11-28T15:34:34.136Z,8.00
2017-11-28T15:37:01.653Z,7.90
2017-11-28T15:39:30.145Z,7.90
2017-11-28T15:41:58.459Z,7.80
2017-11-28T15:44:25.960Z,7.80
2017-11-28T15:46:53.463Z,7.80
2017-11-28T15:49:21.732Z,7.70
2017-11-28T15:51:49.243Z,7.70
2017-11-28T15:54:16.757Z,7.70
2017-11-28T15:56:44.398Z,7.60
2017-11-28T15:59:12.668Z,7.60
2017-11-28T16:01:40.935Z,7.60
2017-11-28T16:04:09.221Z,7.60
2017-11-28T16:06:37.704Z,7.50
2017-11-28T16:09:05.989Z,7.50
2017-11-28T16:11:34.287Z,7.50
2017-11-28T16:14:01.801Z,7.50
2017-11-28T16:16:29.293Z,7.50
2017-11-28T16:18:56.816Z,7.50
2017-11-28T16:21:24.320Z,7.40
2017-11-28T16:23:51.828Z,7.40
2017-11-28T16:26:19.349Z,7.30
2017-11-28T16:28:46.849Z,7.30
2017-11-28T16:31:14.353Z,7.30
2017-11-28T16:33:41.865Z,7.30
2017-11-28T16:36:09.361Z,7.30
2017-11-28T16:38:36.864Z,7.20
2017-11-28T16:41:04.374Z,7.20
2017-11-28T16:43:31.889Z,7.20
2017-11-28T16:45:59.405Z,7.20
2017-11-28T16:48:26.920Z,7.20
2017-11-28T16:50:54.461Z,7.20
2017-11-28T16:53:21.972Z,7.20
2017-11-28T16:55:49.525Z,7.20
2017-11-28T16:58:17.078Z,7.10
2017-11-28T17:00:45.355Z,7.10
2017-11-28T17:03:13.624Z,7.10
2017-11-28T17:05:41.901Z,7.10
2017-11-28T17:08:10.176Z,7.10
2017-11-28T17:10:38.657Z,7.00
2017-11-28T17:13:06.921Z,7.10
2017-11-28T17:15:34.433Z,7.10
2017-11-28T17:18:01.937Z,7.10
2017-11-28T17:20:29.517Z,7.10
2017-11-28T17:22:57.785Z,6.90
2017-11-28T17:25:26.048Z,6.90
2017-11-28T17:27:53.552Z,6.90
2017-11-28T17:30:21.049Z,6.90
2017-11-28T17:32:49.318Z,6.90
2017-11-28T17:35:16.820Z,6.90
2017-11-28T17:37:44.338Z,6.90
2017-11-28T17:40:11.854Z,6.90
2017-11-28T17:42:39.345Z,6.90
2017-11-28T17:45:06.956Z,6.90
2017-11-28T17:47:35.236Z,6.80
2017-11-28T17:50:02.755Z,6.80
2017-11-28T17:52:30.257Z,6.80
2017-11-28T17:54:57.760Z,6.80
2017-11-28T17:57:25.256Z,6.80
2017-11-28T17:59:53.524Z,6.90
2017-11-28T18:02:21.793Z,6.90
2017-11-28T18:04:49.301Z,6.90
2017-11-28T18:07:16.824Z,6.90
2017-11-28T18:09:45.086Z,6.90
2017-11-28T18:12:12.610Z,6.90
2017-11-28T18:14:40.121Z,6.80
2017-11-28T18:17:08.397Z,6.80
2017-11-28T18:19:36.672Z,6.80
2017-11-28T18:22:05.053Z,6.80
2017-11-28T18:24:33.345Z,6.80
2017-11-28T18:27:00.836Z,6.80
2017-11-28T18:29:28.361Z,6.80
2017-11-28T18:31:55.880Z,6.80
2017-11-28T18:34:23.391Z,6.80
2017-11-28T18:36:50.897Z,6.80
2017-11-28T18:39:18.401Z,6.80
2017-11-28T18:41:45.904Z,6.80
2017-11-28T18:44:13.439Z,6.80
2017-11-28T18:46:40.941Z,6.70
2017-11-28T18:49:08.453Z,6.70
2017-11-28T18:51:35.969Z,6.70
2017-11-28T18:54:04.229Z,6.60
2017-11-28T18:56:31.753Z,6.60
2017-11-28T18:58:59.266Z,6.70
2017-11-28T19:01:27.636Z,6.60
2017-11-28T19:03:55.928Z,6.60
2017-11-28T19:06:24.200Z,6.60
2017-11-28T19:08:52.552Z,6.50
2017-11-28T19:11:20.063Z,6.50
2017-11-28T19:13:47.576Z,6.50
2017-11-28T19:16:15.857Z,6.50
2017-11-28T19:18:44.153Z,6.50
2017-11-28T19:21:12.416Z,6.40
2017-11-28T19:23:40.693Z,6.40
2017-11-28T19:26:08.971Z,6.40
2017-11-28T19:28:37.248Z,6.40
2017-11-28T19:31:05.737Z,6.50
2017-11-28T19:33:33.266Z,6.40
2017-11-28T19:36:00.791Z,6.40
2017-11-28T19:38:28.520Z,6.40
2017-11-28T19:40:56.050Z,6.40
2017-11-28T19:43:23.561Z,6.40
2017-11-28T19:45:51.065Z,6.40
2017-11-28T19:48:20.079Z,6.40
2017-11-28T19:50:48.365Z,6.30
2017-11-28T19:53:16.629Z,6.30
2017-11-28T19:55:44.909Z,6.30
2017-11-28T19:58:13.180Z,6.30
2017-11-28T20:00:41.465Z,6.30
2017-11-28T20:03:09.744Z,6.30
2017-11-28T20:05:38.029Z,6.30
2017-11-28T20:08:05.533Z,6.30
2017-11-28T20:10:33.020Z,6.30
2017-11-28T20:13:01.285Z,6.20
2017-11-28T20:15:28.816Z,6.20
2017-11-28T20:17:56.324Z,6.20
2017-11-28T20:20:24.588Z,6.20
2017-11-28T20:22:52.877Z,6.20
2017-11-28T20:25:21.149Z,6.20
2017-11-28T20:27:49.437Z,6.10
2017-11-28T20:30:17.729Z,6.10
2017-11-28T20:32:45.251Z,6.10
2017-11-28T20:35:12.769Z,6.10
2017-11-28T20:37:40.281Z,6.10
2017-11-28T20:42:41.284Z,6.00
2017-11-28T20:45:08.787Z,6.00
2017-11-28T20:47:37.794Z,5.90
2017-11-28T20:50:06.068Z,5.80
2017-11-28T20:52:34.355Z,5.80
2017-11-28T20:55:01.923Z,5.80
2017-11-28T20:57:29.462Z,5.80
2017-11-28T20:59:57.861Z,5.70
2017-11-28T21:02:25.407Z,5.70
2017-11-28T21:04:53.731Z,5.70
2017-11-28T21:07:21.229Z,5.70
2017-11-28T21:09:49.492Z,5.70
2017-11-28T21:12:16.997Z,5.70
2017-11-28T21:14:44.505Z,5.70
2017-11-28T21:17:12.002Z,5.70
2017-11-28T21:19:40.264Z,5.60
2017-11-28T21:22:08.536Z,5.60
2017-11-28T21:24:36.909Z,5.50
2017-11-28T21:27:04.420Z,5.50
2017-11-28T21:29:31.920Z,5.50
2017-11-28T21:31:59.432Z,5.50
2017-11-28T21:34:26.934Z,5.50
2017-11-28T21:36:54.492Z,5.40
2017-11-28T21:39:23.538Z,5.40
2017-11-28T21:41:51.044Z,5.40
2017-11-28T21:44:18.568Z,5.30
2017-11-28T21:46:46.085Z,5.20
2017-11-28T21:49:14.355Z,5.10
2017-11-28T21:51:42.616Z,5.20
2017-11-28T21:54:10.145Z,5.10
2017-11-28T21:56:37.648Z,5.10
2017-11-28T21:59:05.944Z,5.10
2017-11-28T22:01:33.449Z,5.00
2017-11-28T22:04:00.961Z,5.10
2017-11-28T22:06:28.470Z,5.10
2017-11-28T22:08:55.964Z,5.10
2017-11-28T22:11:24.244Z,5.10
2017-11-28T22:13:52.534Z,5.10
2017-11-28T22:16:20.054Z,5.10
2017-11-28T22:18:47.613Z,5.10
2017-11-28T22:21:15.113Z,5.10
2017-11-28T22:23:42.637Z,5.00
2017-11-28T22:26:10.153Z,5.00
2017-11-28T22:28:37.699Z,5.00
2017-11-28T22:31:05.266Z,5.00
2017-11-28T22:33:32.822Z,5.10
2017-11-28T22:36:00.369Z,5.10
2017-11-28T22:38:27.893Z,5.10
2017-11-28T22:40:55.416Z,5.10
2017-11-28T22:43:22.958Z,5.10
2017-11-28T22:45:50.533Z,5.10
2017-11-28T22:48:18.259Z,5.10
2017-11-28T22:50:46.536Z,5.10
2017-11-28T22:53:14.825Z,5.10
2017-11-28T22:55:42.330Z,5.10
2017-11-28T22:58:09.841Z,5.10
2017-11-28T23:00:37.361Z,5.10
2017-11-28T23:03:06.378Z,5.10
2017-11-28T23:05:34.658Z,5.10
2017-11-28T23:08:02.925Z,5.10
2017-11-28T23:10:30.440Z,5.10
2017-11-28T23:12:57.937Z,5.10
2017-11-28T23:15:26.207Z,5.10
2017-11-28T23:17:54.484Z,5.20
2017-11-28T23:20:21.979Z,5.20
2017-11-28T23:22:49.501Z,5.20
2017-11-28T23:25:17.769Z,5.20
2017-11-28T23:27:45.292Z,5.10
2017-11-28T23:30:12.794Z,5.10
2017-11-28T23:32:41.076Z,5.10
2017-11-28T23:35:09.338Z,5.10
2017-11-28T23:37:36.859Z,5.10
2017-11-28T23:40:04.589Z,5.20
2017-11-28T23:42:32.115Z,5.20
2017-11-28T23:44:59.633Z,5.20
2017-11-28T23:47:27.133Z,5.10
2017-11-28T23:49:54.628Z,5.10
2017-11-28T23:52:22.148Z,5.00
2017-11-28T23:54:49.659Z,5.00
2017-11-28T23:57:17.165Z,5.00
2017-11-28T23:59:46.181Z,5.00
